createdAt,value
2019-04-07T00:00:09.594Z,9.90
2019-04-07T00:02:38.575Z,10.00
2019-04-07T00:05:13.640Z,10.00
2019-04-07T00:07:37.840Z,9.90
2019-04-07T00:10:08.455Z,9.90
2019-04-07T00:12:37.003Z,9.90
2019-04-07T00:15:06.299Z,9.90
2019-04-07T00:17:34.768Z,9.90
2019-04-07T00:20:04.200Z,9.80
2019-04-07T00:22:32.717Z,9.70
2019-04-07T00:25:01.896Z,9.70
2019-04-07T00:27:31.017Z,9.50
2019-04-07T00:30:00.002Z,9.50
2019-04-07T00:32:28.516Z,9.40
2019-04-07T00:35:23.270Z,9.30
2019-04-07T00:37:46.705Z,9.10
2019-04-07T00:40:15.234Z,9.00
2019-04-07T00:42:43.697Z,8.90
2019-04-07T00:45:12.124Z,8.70
2019-04-07T00:47:40.584Z,8.70
2019-04-07T00:50:09.030Z,8.60
2019-04-07T00:52:40.253Z,8.70
2019-04-07T00:55:13.038Z,8.50
2019-04-07T00:57:41.757Z,8.30
2019-04-07T01:00:11.824Z,8.00
2019-04-07T01:02:41.306Z,8.10
2019-04-07T01:05:10.479Z,7.90
2019-04-07T01:07:39.014Z,7.90
2019-04-07T01:10:07.447Z,7.80
2019-04-07T01:12:35.915Z,7.80
2019-04-07T01:15:07.633Z,7.80
2019-04-07T01:17:37.185Z,7.80
2019-04-07T01:20:08.896Z,7.80
2019-04-07T01:22:37.448Z,7.90
2019-04-07T01:25:07.138Z,7.80
2019-04-07T01:27:35.838Z,7.70
2019-04-07T01:30:23.678Z,7.60
2019-04-07T01:32:52.205Z,7.50
2019-04-07T01:35:21.268Z,7.40
2019-04-07T01:37:49.734Z,7.30
2019-04-07T01:40:18.421Z,7.30
2019-04-07T01:42:51.307Z,7.30
2019-04-07T01:45:38.135Z,7.20
2019-04-07T01:48:08.813Z,7.20
2019-04-07T01:50:53.978Z,7.10
2019-04-07T01:53:24.502Z,7.00
2019-04-07T01:55:57.614Z,6.90
2019-04-07T01:58:35.567Z,6.90
2019-04-07T02:01:08.451Z,6.80
2019-04-07T02:04:01.736Z,6.70
2019-04-07T02:06:44.134Z,6.70
2019-04-07T02:09:20.561Z,6.70
2019-04-07T02:11:53.841Z,6.90
2019-04-07T02:14:39.406Z,7.00
2019-04-07T02:17:09.794Z,7.20
2019-04-07T02:19:45.953Z,7.40
2019-04-07T02:22:28.041Z,7.40
2019-04-07T02:25:24.179Z,7.40
2019-04-07T02:28:11.015Z,7.40
2019-04-07T02:30:41.563Z,7.50
2019-04-07T02:33:18.164Z,7.30
2019-04-07T02:36:12.084Z,7.30
2019-04-07T02:38:29.529Z,7.30
2019-04-07T02:41:10.635Z,7.30
2019-04-07T02:44:22.115Z,7.30
2019-04-07T02:46:58.854Z,7.30
2019-04-07T02:49:32.431Z,7.40
2019-04-07T02:52:05.802Z,7.30
2019-04-07T02:54:36.088Z,7.40
2019-04-07T02:57:06.432Z,7.00
2019-04-07T02:59:53.441Z,6.80
2019-04-07T03:02:30.344Z,6.60
2019-04-07T03:05:13.796Z,6.50
2019-04-07T03:07:53.160Z,6.50
2019-04-07T03:10:26.076Z,6.50
2019-04-07T03:13:14.652Z,6.40
2019-04-07T03:15:54.582Z,6.40
2019-04-07T03:19:04.504Z,6.40
2019-04-07T03:21:40.529Z,6.40
2019-04-07T03:24:11.215Z,6.40
2019-04-07T03:26:47.850Z,6.30
2019-04-07T03:29:20.490Z,6.20
2019-04-07T03:32:00.068Z,6.10
2019-04-07T03:34:38.204Z,6.00
2019-04-07T03:37:23.013Z,6.00
2019-04-07T03:39:42.604Z,6.00
2019-04-07T03:42:24.915Z,6.00
2019-04-07T03:44:55.032Z,6.00
2019-04-07T03:47:32.063Z,6.20
2019-04-07T03:50:08.856Z,6.30
2019-04-07T03:52:39.378Z,6.50
2019-04-07T03:55:24.655Z,6.70
2019-04-07T03:58:01.573Z,6.90
2019-04-07T04:01:01.392Z,7.00
2019-04-07T04:03:32.249Z,7.10
2019-04-07T04:06:14.172Z,7.10
2019-04-07T04:08:50.941Z,7.20
2019-04-07T04:11:21.110Z,7.20
2019-04-07T04:13:58.057Z,7.30
2019-04-07T04:16:27.150Z,7.30
2019-04-07T04:18:55.653Z,7.40
2019-04-07T04:21:24.260Z,7.50
2019-04-07T04:23:53.053Z,7.40
2019-04-07T04:26:21.554Z,7.60
2019-04-07T04:28:50.686Z,7.60
2019-04-07T04:31:19.591Z,7.50
2019-04-07T04:33:48.556Z,7.40
2019-04-07T04:36:17.747Z,7.30
2019-04-07T04:38:46.309Z,7.30
2019-04-07T04:42:05.651Z,7.20
2019-04-07T04:44:34.127Z,7.10
2019-04-07T04:47:02.837Z,7.20
2019-04-07T04:49:31.328Z,7.20
2019-04-07T04:52:00.428Z,7.20
2019-04-07T04:54:35.598Z,7.20
2019-04-07T04:57:06.199Z,7.30
2019-04-07T04:59:34.134Z,7.30
2019-04-07T05:02:02.713Z,7.30
2019-04-07T05:04:31.856Z,7.30
2019-04-07T05:07:01.373Z,7.40
2019-04-07T05:09:43.220Z,7.40
2019-04-07T05:12:00.072Z,7.40
2019-04-07T05:14:28.534Z,7.50
2019-04-07T05:16:56.969Z,7.60
2019-04-07T05:19:26.218Z,7.60
2019-04-07T05:21:54.807Z,7.70
2019-04-07T05:24:23.228Z,7.90
2019-04-07T05:26:51.895Z,8.10
2019-04-07T05:29:20.413Z,8.20
2019-04-07T05:31:49.198Z,8.30
2019-04-07T05:34:20.415Z,8.50
2019-04-07T05:36:47.864Z,8.60
2019-04-07T05:39:16.541Z,8.70
2019-04-07T05:41:45.039Z,8.80
2019-04-07T05:44:13.546Z,9.10
2019-04-07T05:46:42.531Z,9.20
2019-04-07T05:49:31.384Z,9.30
2019-04-07T05:52:04.026Z,9.40
2019-04-07T05:54:30.045Z,9.60
2019-04-07T05:57:01.171Z,9.80
2019-04-07T05:59:28.753Z,10.00
2019-04-07T06:02:01.251Z,10.10
2019-04-07T06:04:28.146Z,10.10
2019-04-07T06:06:56.790Z,10.30
2019-04-07T06:09:25.257Z,10.50
2019-04-07T06:11:54.427Z,10.50
2019-04-07T06:14:24.301Z,10.50
2019-04-07T06:16:55.162Z,10.70
2019-04-07T06:19:22.971Z,10.80
2019-04-07T06:21:51.644Z,10.70
2019-04-07T06:24:22.226Z,11.10
2019-04-07T06:26:50.428Z,11.30
2019-04-07T06:29:19.906Z,11.60
2019-04-07T06:31:49.841Z,11.50
2019-04-07T06:34:18.560Z,11.50
2019-04-07T06:36:51.782Z,11.30
2019-04-07T06:39:18.843Z,11.30
2019-04-07T06:41:47.641Z,11.30
2019-04-07T06:44:19.890Z,11.30
2019-04-07T06:46:48.007Z,11.50
2019-04-07T06:49:18.077Z,11.40
2019-04-07T06:52:04.916Z,11.50
2019-04-07T06:54:37.769Z,11.70
2019-04-07T06:57:08.444Z,12.30
2019-04-07T06:59:45.646Z,12.70
2019-04-07T07:02:19.626Z,13.20
2019-04-07T07:05:05.200Z,13.60
2019-04-07T07:07:35.730Z,14.30
2019-04-07T07:10:11.630Z,14.60
2019-04-07T07:12:50.802Z,14.80
2019-04-07T07:15:20.971Z,15.10
2019-04-07T07:17:59.017Z,15.10
2019-04-07T07:20:30.181Z,15.70
2019-04-07T07:23:00.778Z,15.50
2019-04-07T07:25:31.288Z,15.40
2019-04-07T07:27:59.947Z,15.50
2019-04-07T07:32:59.679Z,15.80
2019-04-07T07:35:28.766Z,16.20
2019-04-07T07:37:59.479Z,16.60
2019-04-07T07:40:27.548Z,16.50
2019-04-07T07:42:59.525Z,16.20
2019-04-07T07:45:28.361Z,15.70
2019-04-07T07:47:57.648Z,15.90
2019-04-07T07:50:31.747Z,16.00
2019-04-07T07:53:01.403Z,15.70
2019-04-07T07:55:33.844Z,15.40
2019-04-07T07:58:04.055Z,15.30
2019-04-07T08:00:32.049Z,15.10
2019-04-07T08:03:02.011Z,15.00
2019-04-07T08:05:33.348Z,15.10
2019-04-07T08:08:02.125Z,14.90
2019-04-07T08:10:30.603Z,15.10
2019-04-07T08:12:59.661Z,15.30
2019-04-07T08:15:32.110Z,15.30
2019-04-07T08:18:07.030Z,14.90
2019-04-07T08:20:33.921Z,15.30
2019-04-07T08:23:08.028Z,15.10
2019-04-07T08:25:37.834Z,15.20
2019-04-07T08:28:08.185Z,15.00
2019-04-07T08:30:39.388Z,15.20
2019-04-07T08:33:09.383Z,15.40
2019-04-07T08:35:39.758Z,15.60
2019-04-07T08:38:08.820Z,15.80
2019-04-07T08:40:38.391Z,15.80
2019-04-07T08:43:11.479Z,16.00
2019-04-07T08:45:42.480Z,16.20
2019-04-07T08:48:11.565Z,16.00
2019-04-07T08:50:41.048Z,16.00
2019-04-07T08:53:12.283Z,16.20
2019-04-07T08:55:40.525Z,16.30
2019-04-07T08:58:23.592Z,16.40
2019-04-07T09:00:46.508Z,16.60
2019-04-07T09:03:16.447Z,16.60
2019-04-07T09:05:50.293Z,16.50
2019-04-07T09:08:19.169Z,16.40
2019-04-07T09:10:59.367Z,16.10
2019-04-07T09:13:29.765Z,16.40
2019-04-07T09:16:05.706Z,16.40
2019-04-07T09:19:00.647Z,16.40
2019-04-07T09:24:20.393Z,16.90
2019-04-07T09:26:51.428Z,16.60
2019-04-07T09:29:45.395Z,16.70
2019-04-07T09:32:29.088Z,16.50
2019-04-07T09:35:16.659Z,16.50
2019-04-07T09:37:55.993Z,16.60
2019-04-07T09:40:27.807Z,16.70
2019-04-07T09:43:00.995Z,16.70
2019-04-07T09:45:46.996Z,16.60
2019-04-07T09:48:35.426Z,16.50
2019-04-07T09:51:09.148Z,16.80
2019-04-07T09:53:44.841Z,16.50
2019-04-07T09:56:27.251Z,16.80
2019-04-07T09:58:56.809Z,17.00
2019-04-07T10:01:37.024Z,17.20
2019-04-07T10:04:16.762Z,17.80
2019-04-07T10:06:53.791Z,18.20
2019-04-07T10:10:07.408Z,18.90
2019-04-07T10:12:41.407Z,19.40
2019-04-07T10:15:28.546Z,19.80
2019-04-07T10:18:02.665Z,19.70
2019-04-07T10:20:51.428Z,20.00
2019-04-07T10:23:34.212Z,19.30
2019-04-07T10:26:10.233Z,19.00
2019-04-07T10:28:44.086Z,19.20
2019-04-07T10:31:20.888Z,19.30
2019-04-07T10:33:57.236Z,20.00
2019-04-07T10:39:13.005Z,19.90
2019-04-07T10:41:55.740Z,19.30
2019-04-07T10:44:26.075Z,18.90
2019-04-07T10:47:08.420Z,19.30
2019-04-07T10:50:01.545Z,20.00
2019-04-07T10:52:45.896Z,20.10
2019-04-07T10:55:16.910Z,20.10
2019-04-07T10:58:04.283Z,20.20
2019-04-07T11:00:51.060Z,20.90
2019-04-07T11:03:24.937Z,21.40
2019-04-07T11:05:55.438Z,21.60
2019-04-07T11:08:27.230Z,21.90
2019-04-07T11:11:14.608Z,22.20
2019-04-07T11:13:47.912Z,22.50
2019-04-07T11:16:21.777Z,23.10
2019-04-07T11:19:07.797Z,23.20
2019-04-07T11:21:55.589Z,23.40
2019-04-07T11:24:44.330Z,23.30
2019-04-07T11:27:21.132Z,23.50
2019-04-07T11:30:00.910Z,23.50
2019-04-07T11:32:37.686Z,23.10
2019-04-07T11:35:19.776Z,23.20
2019-04-07T11:37:50.388Z,23.10
2019-04-07T11:40:41.507Z,23.20
2019-04-07T11:43:03.264Z,23.30
2019-04-07T11:45:53.228Z,24.00
2019-04-07T11:48:39.425Z,24.40
2019-04-07T11:54:07.658Z,24.10
2019-04-07T11:56:44.233Z,24.70
2019-04-07T11:59:14.899Z,24.70
2019-04-07T12:01:57.367Z,24.90
2019-04-07T12:04:29.534Z,25.10
2019-04-07T12:10:08.316Z,24.90
2019-04-07T12:12:42.016Z,25.10
2019-04-07T12:15:29.138Z,25.30
2019-04-07T12:18:03.735Z,25.10
2019-04-07T12:20:36.188Z,25.10
2019-04-07T12:23:27.140Z,25.40
2019-04-07T12:26:06.187Z,25.00
2019-04-07T12:28:52.492Z,24.20
2019-04-07T12:31:24.959Z,25.30
2019-04-07T12:33:58.430Z,25.00
2019-04-07T12:36:32.127Z,23.80
2019-04-07T12:39:02.942Z,22.40
2019-04-07T12:41:43.687Z,22.60
2019-04-07T12:44:23.409Z,22.40
2019-04-07T12:47:09.215Z,22.10
2019-04-07T12:49:45.517Z,22.30
2019-04-07T12:52:32.531Z,22.60
2019-04-07T12:55:03.068Z,22.40
2019-04-07T12:57:39.805Z,22.50
2019-04-07T13:00:15.723Z,22.50
2019-04-07T13:02:55.508Z,22.00
2019-04-07T13:05:34.618Z,22.10
2019-04-07T13:08:07.087Z,21.50
2019-04-07T13:11:11.016Z,20.90
2019-04-07T13:14:22.555Z,20.30
2019-04-07T13:19:50.312Z,22.30
2019-04-07T13:22:37.663Z,23.90
2019-04-07T13:25:09.106Z,23.30
2019-04-07T13:27:42.747Z,22.40
2019-04-07T13:30:25.938Z,21.90
2019-04-07T13:33:20.227Z,21.80
2019-04-07T13:35:51.856Z,21.90
2019-04-07T13:38:22.578Z,22.40
2019-04-07T13:41:06.302Z,22.50
2019-04-07T13:43:42.530Z,22.30
2019-04-07T13:46:22.042Z,20.30
2019-04-07T13:48:49.673Z,20.30
2019-04-07T13:54:33.592Z,20.10
2019-04-07T13:57:12.696Z,19.80
2019-04-07T13:59:44.086Z,19.70
2019-04-07T14:04:52.707Z,19.70
2019-04-07T14:07:23.933Z,19.60
2019-04-07T14:10:14.440Z,19.80
2019-04-07T14:13:05.359Z,20.60
2019-04-07T14:15:34.939Z,20.30
2019-04-07T14:18:08.966Z,20.00
2019-04-07T14:20:45.126Z,19.80
2019-04-07T14:23:24.090Z,20.20
2019-04-07T14:26:12.546Z,20.40
2019-04-07T14:28:54.480Z,20.20
2019-04-07T14:31:25.158Z,19.80
2019-04-07T14:34:11.793Z,19.30
2019-04-07T14:36:44.639Z,18.90
2019-04-07T14:39:31.440Z,18.80
2019-04-07T14:42:07.319Z,18.70
2019-04-07T14:44:36.953Z,18.70
2019-04-07T14:47:07.696Z,18.60
2019-04-07T14:49:55.068Z,18.50
2019-04-07T14:52:35.973Z,18.70
2019-04-07T14:55:21.406Z,18.50
2019-04-07T14:57:57.242Z,18.30
2019-04-07T15:00:45.998Z,18.40
2019-04-07T15:03:21.586Z,18.40
2019-04-07T15:05:55.195Z,18.60
2019-04-07T15:08:32.955Z,18.40
2019-04-07T15:11:03.208Z,18.30
2019-04-07T15:13:32.395Z,18.50
2019-04-07T15:16:00.804Z,18.40
2019-04-07T15:18:29.772Z,18.20
2019-04-07T15:20:59.294Z,18.10
2019-04-07T15:23:31.664Z,18.20
2019-04-07T15:25:58.945Z,18.00
2019-04-07T15:28:29.732Z,18.00
2019-04-07T15:30:57.484Z,17.80
2019-04-07T15:33:25.926Z,17.90
2019-04-07T15:35:54.570Z,17.90
2019-04-07T15:38:26.723Z,18.00
2019-04-07T15:40:53.216Z,17.80
2019-04-07T15:43:22.331Z,17.80
2019-04-07T15:45:54.642Z,18.00
2019-04-07T15:48:25.730Z,17.90
2019-04-07T15:50:54.031Z,17.80
2019-04-07T15:53:56.554Z,17.80
2019-04-07T15:56:24.992Z,17.80
2019-04-07T15:58:53.446Z,17.90
2019-04-07T16:01:21.889Z,18.00
2019-04-07T16:03:59.231Z,18.10
2019-04-07T16:06:28.127Z,18.10
2019-04-07T16:08:58.835Z,18.10
2019-04-07T16:11:28.744Z,18.10
2019-04-07T16:13:56.749Z,18.00
2019-04-07T16:16:28.455Z,17.70
2019-04-07T16:18:55.301Z,17.60
2019-04-07T16:21:24.155Z,17.30
2019-04-07T16:23:54.188Z,17.30
2019-04-07T16:26:30.170Z,17.10
2019-04-07T16:28:58.341Z,16.90
2019-04-07T16:31:27.147Z,17.00
2019-04-07T16:33:57.108Z,16.80
2019-04-07T16:36:26.402Z,16.70
2019-04-07T16:41:44.596Z,16.60
2019-04-07T16:44:19.310Z,16.70
2019-04-07T16:46:47.718Z,17.00
2019-04-07T16:49:18.936Z,16.90
2019-04-07T16:51:47.564Z,16.60
2019-04-07T16:54:16.384Z,16.60
2019-04-07T16:56:45.508Z,16.50
2019-04-07T16:59:14.062Z,16.40
2019-04-07T17:01:43.339Z,16.30
2019-04-07T17:04:12.655Z,16.20
2019-04-07T17:06:46.311Z,16.40
2019-04-07T17:09:18.162Z,16.30
2019-04-07T17:11:47.162Z,16.00
2019-04-07T17:14:35.768Z,16.00
2019-04-07T17:17:03.657Z,15.80
2019-04-07T17:19:32.243Z,15.70
2019-04-07T17:22:01.829Z,15.60
2019-04-07T17:24:30.583Z,15.60
2019-04-07T17:27:04.566Z,15.40
2019-04-07T17:29:33.137Z,15.30
2019-04-07T17:32:02.809Z,15.30
2019-04-07T17:34:32.565Z,15.30
2019-04-07T17:37:01.124Z,15.30
2019-04-07T17:39:31.530Z,15.40
2019-04-07T17:42:00.399Z,15.40
2019-04-07T17:44:41.837Z,15.30
2019-04-07T17:47:18.043Z,15.20
2019-04-07T17:49:56.655Z,15.00
2019-04-07T17:52:58.326Z,14.90
2019-04-07T17:58:36.731Z,14.70
2019-04-07T18:01:12.640Z,14.60
2019-04-07T18:03:52.135Z,14.50
2019-04-07T18:06:40.346Z,14.50
2019-04-07T18:09:24.561Z,14.40
2019-04-07T18:12:10.345Z,14.20
2019-04-07T18:14:40.606Z,14.20
2019-04-07T18:17:16.879Z,14.00
2019-04-07T18:22:36.995Z,13.70
2019-04-07T18:25:16.270Z,13.50
2019-04-07T18:27:48.286Z,13.40
2019-04-07T18:30:32.477Z,13.20
2019-04-07T18:33:37.918Z,13.10
2019-04-07T18:36:13.843Z,13.00
2019-04-07T18:45:11.270Z,12.60
2019-04-07T18:47:56.767Z,12.40
2019-04-07T18:50:44.402Z,12.30
2019-04-07T18:53:14.773Z,12.20
2019-04-07T18:56:03.489Z,12.10
2019-04-07T18:58:48.640Z,12.00
2019-04-07T19:01:20.461Z,12.00
2019-04-07T19:03:53.365Z,11.90
2019-04-07T19:06:31.522Z,11.80
2019-04-07T19:09:08.195Z,11.70
2019-04-07T19:12:02.808Z,11.60
2019-04-07T19:14:40.316Z,11.50
2019-04-07T19:17:11.439Z,11.40
2019-04-07T19:19:42.012Z,11.40
2019-04-07T19:22:15.888Z,11.30
2019-04-07T19:24:43.931Z,11.20
2019-04-07T19:27:19.634Z,11.20
2019-04-07T19:30:05.798Z,11.20
2019-04-07T19:32:54.947Z,11.10
2019-04-07T19:35:40.443Z,11.00
2019-04-07T19:38:11.023Z,11.00
2019-04-07T19:40:48.332Z,11.00
2019-04-07T19:43:18.580Z,10.90
2019-04-07T19:45:52.595Z,10.90
2019-04-07T19:48:42.419Z,10.80
2019-04-07T19:51:14.350Z,10.80
2019-04-07T19:54:00.783Z,10.70
2019-04-07T19:56:39.892Z,10.50
2019-04-07T19:59:26.619Z,10.50
2019-04-07T20:02:08.518Z,10.40
2019-04-07T20:04:53.427Z,10.20
2019-04-07T20:07:22.330Z,10.00
2019-04-07T20:13:05.549Z,9.90
2019-04-07T20:15:45.057Z,9.90
2019-04-07T20:18:24.562Z,9.90
2019-04-07T20:20:58.981Z,9.90
2019-04-07T20:23:31.862Z,9.90
2019-04-07T20:26:13.581Z,9.90
2019-04-07T20:28:54.164Z,9.90
2019-04-07T20:31:34.306Z,9.80
2019-04-07T20:34:10.252Z,9.80
2019-04-07T20:36:54.892Z,9.70
2019-04-07T20:39:33.842Z,9.70
2019-04-07T20:42:08.525Z,9.70
2019-04-07T20:44:48.551Z,9.60
2019-04-07T20:47:33.211Z,9.60
2019-04-07T20:50:06.122Z,9.60
2019-04-07T20:52:36.233Z,9.50
2019-04-07T20:55:24.249Z,9.50
2019-04-07T20:58:16.053Z,9.50
2019-04-07T21:01:04.188Z,9.50
2019-04-07T21:03:51.394Z,9.60
2019-04-07T21:06:35.829Z,9.50
2019-04-07T21:09:11.366Z,9.60
2019-04-07T21:11:45.109Z,9.60
2019-04-07T21:14:28.510Z,9.70
2019-04-07T21:17:13.825Z,9.70
2019-04-07T21:19:47.580Z,9.70
2019-04-07T21:22:18.624Z,9.70
2019-04-07T21:25:05.359Z,9.70
2019-04-07T21:27:52.777Z,9.70
2019-04-07T21:30:37.345Z,9.70
2019-04-07T21:33:17.328Z,9.70
2019-04-07T21:35:55.538Z,9.70
2019-04-07T21:38:26.199Z,9.50
2019-04-07T21:40:57.795Z,9.30
2019-04-07T21:43:46.691Z,9.00
2019-04-07T21:46:33.431Z,8.90
2019-04-07T21:49:12.627Z,8.80
2019-04-07T21:51:45.973Z,8.60
2019-04-07T21:54:14.463Z,8.60
2019-04-07T21:57:02.914Z,8.60
2019-04-07T21:59:33.674Z,8.40
2019-04-07T22:02:09.256Z,8.40
2019-04-07T22:04:36.181Z,8.30
2019-04-07T22:07:06.297Z,8.20
2019-04-07T22:09:36.346Z,8.10
2019-04-07T22:12:04.813Z,8.10
2019-04-07T22:14:37.450Z,8.10
2019-04-07T22:17:04.153Z,8.00
2019-04-07T22:19:34.329Z,8.10
2019-04-07T22:22:03.045Z,8.10
2019-04-07T22:24:35.859Z,8.10
2019-04-07T22:27:04.583Z,8.00
2019-04-07T22:29:34.692Z,7.90
2019-04-07T22:32:03.379Z,7.80
2019-04-07T22:34:32.758Z,7.70
2019-04-07T22:37:02.597Z,7.80
2019-04-07T22:39:32.031Z,7.90
2019-04-07T22:42:00.613Z,8.00
2019-04-07T22:44:32.034Z,8.10
2019-04-07T22:47:00.486Z,8.10
2019-04-07T22:49:31.827Z,8.20
2019-04-07T22:52:18.942Z,8.10
2019-04-07T22:54:47.806Z,8.00
2019-04-07T22:57:16.277Z,7.90
2019-04-07T22:59:45.268Z,7.70
2019-04-07T23:02:13.824Z,7.50
2019-04-07T23:04:42.669Z,7.40
2019-04-07T23:07:11.712Z,7.50
2019-04-07T23:09:40.998Z,7.60
2019-04-07T23:12:10.573Z,7.70
2019-04-07T23:14:40.051Z,7.80
2019-04-07T23:17:08.594Z,7.90
2019-04-07T23:19:37.858Z,7.90
2019-04-07T23:22:06.445Z,7.90
2019-04-07T23:24:35.001Z,8.00
2019-04-07T23:27:04.135Z,8.00
2019-04-07T23:29:32.650Z,7.90
2019-04-07T23:32:01.847Z,7.80
2019-04-07T23:34:31.125Z,7.60
2019-04-07T23:36:59.760Z,7.40
2019-04-07T23:39:29.184Z,7.30
2019-04-07T23:41:58.593Z,7.30
2019-04-07T23:44:27.693Z,7.30
2019-04-07T23:46:57.105Z,7.30
2019-04-07T23:49:26.082Z,7.30
2019-04-07T23:51:55.254Z,7.40
2019-04-07T23:54:24.779Z,7.40
2019-04-07T23:56:54.095Z,7.40
2019-04-07T23:59:22.862Z,7.40
